Time;durP1;ratioP1;P1;durP2;ratioP2;P2;SDS_P1;SDS_P2;PMS_P1;PMS_P2;Temp;Humidity;BMP_temperature;BMP_pressure;BME280_temperature;BME280_humidity;BME280_pressure;Samples;Min_cycle;Max_cycle;Signal;HPM_P1;HPM_P2
2024/01/09 00:00:30;;;;;;;7.03;3.75;;;-2.00;99.90;;;;;;5071097;28;20040;-66
2024/01/09 00:02:55;;;;;;;6.25;3.60;;;-2.10;99.90;;;;;;5071312;28;20055;-65
2024/01/09 00:05:21;;;;;;;6.63;3.50;;;-2.20;99.90;;;;;;5072357;28;20082;-66
2024/01/09 00:07:47;;;;;;;7.18;3.65;;;-2.20;99.90;;;;;;5072052;28;20052;-66
2024/01/09 00:10:13;;;;;;;6.43;3.80;;;-2.00;99.90;;;;;;5072060;28;20323;-65
2024/01/09 00:12:38;;;;;;;6.72;3.38;;;-2.30;99.90;;;;;;5070761;28;20051;-66
2024/01/09 00:15:06;;;;;;;6.97;3.60;;;-2.40;99.90;;;;;;5072189;28;20051;-66
2024/01/09 00:17:32;;;;;;;5.93;3.50;;;-2.30;99.90;;;;;;5071854;28;20052;-69
2024/01/09 00:19:58;;;;;;;7.22;3.60;;;-2.20;99.90;;;;;;5070850;28;20040;-65
2024/01/09 00:22:24;;;;;;;7.72;3.70;;;-1.90;99.90;;;;;;5070987;28;20381;-65
2024/01/09 00:24:49;;;;;;;8.05;3.83;;;-1.30;99.90;;;;;;5071566;28;20130;-65
2024/01/09 00:27:15;;;;;;;6.93;4.10;;;-2.70;99.90;;;;;;5072170;28;20052;-65
2024/01/09 00:29:41;;;;;;;5.82;3.70;;;-2.40;99.90;;;;;;5070588;28;20480;-66
2024/01/09 00:32:07;;;;;;;5.25;3.30;;;-2.50;99.90;;;;;;5071022;28;20052;-67
2024/01/09 00:34:32;;;;;;;7.60;4.18;;;-2.40;99.90;;;;;;5071967;28;20052;-71
2024/01/09 00:36:58;;;;;;;6.63;3.88;;;-2.50;99.90;;;;;;5071902;28;20049;-65
2024/01/09 00:39:24;;;;;;;6.88;3.83;;;-2.70;99.90;;;;;;5072052;28;20128;-65
2024/01/09 00:41:49;;;;;;;6.45;3.47;;;-2.10;99.90;;;;;;5069975;28;20094;-65
2024/01/09 00:44:15;;;;;;;9.55;4.03;;;-2.70;99.90;;;;;;5072063;28;20052;-65
2024/01/09 00:46:40;;;;;;;9.88;4.20;;;-2.80;99.90;;;;;;5053807;28;20518;-65
2024/01/09 00:49:06;;;;;;;6.88;4.13;;;-2.80;99.90;;;;;;5071796;28;20041;-65
2024/01/09 00:51:32;;;;;;;5.97;3.33;;;-2.60;99.90;;;;;;5071515;28;20051;-69
2024/01/09 00:53:58;;;;;;;7.40;3.75;;;-2.10;99.90;;;;;;5071352;28;20109;-65
2024/01/09 00:56:23;;;;;;;5.13;2.97;;;-2.40;99.90;;;;;;5070547;28;20048;-66
2024/01/09 00:58:49;;;;;;;7.20;3.90;;;-2.70;99.90;;;;;;5071457;28;20052;-65
2024/01/09 01:01:15;;;;;;;6.93;3.78;;;-1.60;99.90;;;;;;5071574;28;20045;-66
2024/01/09 01:03:42;;;;;;;6.90;4.30;;;-2.60;99.90;;;;;;5071291;28;20048;-66
2024/01/09 01:06:08;;;;;;;7.53;4.25;;;-2.90;99.90;;;;;;5054180;28;20054;-65
2024/01/09 01:08:34;;;;;;;7.85;4.30;;;-2.50;99.90;;;;;;5070419;28;20395;-66
2024/01/09 01:11:01;;;;;;;7.07;4.15;;;-1.80;99.90;;;;;;5070145;28;20123;-65
2024/01/09 01:13:26;;;;;;;7.50;3.78;;;-2.20;99.90;;;;;;5071755;28;20049;-66
2024/01/09 01:15:52;;;;;;;8.10;3.88;;;-3.10;99.90;;;;;;5071130;28;20560;-65
2024/01/09 01:18:18;;;;;;;7.53;3.90;;;-1.60;99.90;;;;;;5070431;28;20040;-66
2024/01/09 01:20:43;;;;;;;7.22;3.90;;;-2.90;99.90;;;;;;5070053;28;20159;-66
2024/01/09 01:23:09;;;;;;;9.73;4.00;;;-2.90;99.90;;;;;;5071358;28;20045;-66
2024/01/09 01:25:35;;;;;;;8.52;4.00;;;-2.90;99.90;;;;;;5071568;28;20048;-66
2024/01/09 01:28:01;;;;;;;6.22;3.88;;;-3.30;99.90;;;;;;5071187;28;20086;-66
2024/01/09 01:30:26;;;;;;;6.50;3.70;;;-1.90;99.90;;;;;;5071139;28;20045;-66
2024/01/09 01:32:52;;;;;;;6.13;3.67;;;-3.10;99.90;;;;;;5071107;28;20055;-66
2024/01/09 01:35:18;;;;;;;6.82;3.90;;;-2.80;99.90;;;;;;5069563;28;20052;-67
2024/01/09 01:37:43;;;;;;;7.63;4.00;;;-3.00;99.90;;;;;;5069930;28;20079;-73
2024/01/09 01:40:09;;;;;;;6.10;3.60;;;-2.80;99.90;;;;;;5071598;28;20396;-66
2024/01/09 01:42:35;;;;;;;5.55;3.60;;;-2.80;99.90;;;;;;5069956;28;20040;-66
2024/01/09 01:45:01;;;;;;;6.90;3.97;;;-2.90;99.90;;;;;;5069943;28;20397;-65
2024/01/09 01:47:27;;;;;;;6.95;3.75;;;-2.30;99.90;;;;;;5071266;28;20052;-66
2024/01/09 01:49:53;;;;;;;8.30;3.65;;;-2.90;99.90;;;;;;5070871;28;20041;-66
2024/01/09 01:52:19;;;;;;;7.30;3.80;;;-2.90;99.90;;;;;;5072114;28;20044;-65
2024/01/09 01:54:45;;;;;;;6.47;4.05;;;-2.60;99.90;;;;;;5040343;28;20071;-72
2024/01/09 01:57:12;;;;;;;6.93;3.97;;;-2.90;99.90;;;;;;5074805;28;20055;-66
2024/01/09 01:59:42;;;;;;;5.57;3.80;;;-3.10;99.90;;;;;;5074834;28;20131;-66
2024/01/09 02:02:08;;;;;;;6.90;4.00;;;-3.00;99.90;;;;;;5074535;28;20099;-66
2024/01/09 02:04:35;;;;;;;6.72;3.70;;;-3.10;99.90;;;;;;5073668;28;20126;-66
2024/01/09 02:07:01;;;;;;;6.93;3.88;;;-3.10;99.90;;;;;;5074354;28;20129;-65
2024/01/09 02:09:27;;;;;;;5.97;3.80;;;-3.00;99.90;;;;;;5073593;28;20535;-65
2024/01/09 02:11:53;;;;;;;5.65;3.70;;;-3.10;99.90;;;;;;5074258;28;20044;-66
2024/01/09 02:14:19;;;;;;;6.38;3.70;;;-3.10;99.90;;;;;;5074738;28;20128;-65
2024/01/09 02:16:45;;;;;;;7.53;3.80;;;-3.10;99.90;;;;;;5056917;28;20398;-65
2024/01/09 02:19:10;;;;;;;5.95;3.80;;;-3.10;99.90;;;;;;5056325;28;20044;-65
2024/01/09 02:21:36;;;;;;;6.70;3.70;;;-3.20;99.90;;;;;;5074477;28;20044;-65
2024/01/09 02:24:02;;;;;;;6.30;3.55;;;-3.10;99.90;;;;;;5074258;28;20120;-65
2024/01/09 02:26:34;;;;;;;7.60;3.97;;;-3.20;99.90;;;;;;5074317;28;20052;-65
2024/01/09 02:29:07;;;;;;;10.45;3.63;;;-3.20;99.90;;;;;;5072740;28;20525;-66
2024/01/09 02:31:33;;;;;;;5.78;3.50;;;-3.20;99.90;;;;;;5074234;28;20186;-65
2024/01/09 02:34:01;;;;;;;7.03;3.55;;;-3.10;99.90;;;;;;5074001;28;20041;-65
2024/01/09 02:36:26;;;;;;;8.48;3.38;;;-3.10;99.90;;;;;;5074367;28;20056;-65
2024/01/09 02:38:52;;;;;;;5.40;3.65;;;-3.10;99.90;;;;;;5073651;28;20056;-72
2024/01/09 02:41:18;;;;;;;6.97;3.80;;;-3.20;99.90;;;;;;5056266;28;20083;-65
2024/01/09 02:43:43;;;;;;;5.68;3.17;;;-3.10;99.90;;;;;;5074078;28;20044;-65
2024/01/09 02:46:09;;;;;;;5.88;3.88;;;-3.20;99.90;;;;;;5073369;28;20051;-65
2024/01/09 02:48:35;;;;;;;7.22;3.53;;;-3.20;99.90;;;;;;5073804;28;20059;-65
2024/01/09 02:51:00;;;;;;;5.72;3.50;;;-3.20;99.90;;;;;;5073513;28;20124;-65
2024/01/09 02:53:26;;;;;;;5.05;3.40;;;-3.20;99.90;;;;;;5072503;28;20055;-65
2024/01/09 02:55:52;;;;;;;5.85;3.35;;;-3.30;99.90;;;;;;5072590;28;20037;-65
2024/01/09 02:58:17;;;;;;;5.85;3.72;;;-3.30;99.90;;;;;;5055496;28;20052;-65
2024/01/09 03:00:43;;;;;;;6.35;3.45;;;-3.30;99.90;;;;;;5073545;28;20041;-65
2024/01/09 03:03:08;;;;;;;7.57;3.90;;;-3.30;99.90;;;;;;5072907;28;20117;-65
2024/01/09 03:05:34;;;;;;;6.68;3.63;;;-3.30;99.90;;;;;;5072502;28;20365;-65
2024/01/09 03:08:00;;;;;;;6.95;3.88;;;-3.40;99.90;;;;;;5073184;28;20045;-65
2024/01/09 03:10:25;;;;;;;7.88;4.07;;;-3.40;99.90;;;;;;5073285;28;20049;-67
2024/01/09 03:12:51;;;;;;;7.20;3.55;;;-3.40;99.90;;;;;;5073358;28;20044;-65
2024/01/09 03:15:17;;;;;;;5.15;3.03;;;-3.40;99.90;;;;;;5072819;28;20593;-65
2024/01/09 03:17:42;;;;;;;6.68;3.47;;;-3.40;99.90;;;;;;5073482;28;20086;-65
2024/01/09 03:20:09;;;;;;;7.05;3.67;;;-3.40;99.90;;;;;;5072921;28;20040;-65
2024/01/09 03:22:34;;;;;;;6.50;3.72;;;-3.50;99.90;;;;;;5073161;28;20090;-65
2024/01/09 03:25:00;;;;;;;6.72;3.80;;;-3.30;99.90;;;;;;5072724;28;20045;-67
2024/01/09 03:27:26;;;;;;;6.80;4.10;;;-3.50;99.90;;;;;;5072056;28;20134;-65
2024/01/09 03:29:52;;;;;;;6.40;3.50;;;-3.50;99.90;;;;;;5073113;28;20041;-65
2024/01/09 03:32:17;;;;;;;6.78;3.60;;;-3.50;99.90;;;;;;5072669;28;20445;-65
2024/01/09 03:34:43;;;;;;;6.63;3.70;;;-3.50;99.90;;;;;;5055273;28;20040;-65
2024/01/09 03:37:09;;;;;;;7.85;3.67;;;-3.50;99.90;;;;;;5072491;28;20401;-65
2024/01/09 03:39:36;;;;;;;7.15;3.92;;;-3.50;99.90;;;;;;5071828;28;20167;-65
2024/01/09 03:42:01;;;;;;;7.40;3.45;;;-3.60;99.90;;;;;;5072899;28;20047;-72
2024/01/09 03:44:27;;;;;;;5.28;3.38;;;-3.60;99.90;;;;;;5072987;28;20044;-65
2024/01/09 03:46:53;;;;;;;6.55;3.83;;;-3.60;99.90;;;;;;5072891;28;20078;-65
2024/01/09 03:49:18;;;;;;;5.78;3.50;;;-3.60;99.90;;;;;;5072483;28;20048;-65
2024/01/09 03:51:44;;;;;;;6.75;3.60;;;-3.60;99.90;;;;;;5071210;28;20055;-66
2024/01/09 03:54:10;;;;;;;6.57;3.78;;;-3.60;99.90;;;;;;5072194;28;20163;-65
2024/01/09 03:56:36;;;;;;;8.32;3.83;;;-3.60;99.90;;;;;;5070874;28;20088;-65
2024/01/09 03:59:02;;;;;;;6.32;3.35;;;-3.60;99.90;;;;;;5072227;28;20114;-65
2024/01/09 04:01:27;;;;;;;6.43;3.55;;;-3.60;99.90;;;;;;5071768;28;20061;-65
2024/01/09 04:03:53;;;;;;;5.65;3.88;;;-3.70;99.90;;;;;;5071135;28;20102;-65
2024/01/09 04:06:19;;;;;;;6.10;3.88;;;-3.70;99.90;;;;;;5072495;28;20044;-65
2024/01/09 04:08:44;;;;;;;7.55;3.85;;;-3.70;99.90;;;;;;5072163;28;20455;-65
2024/01/09 04:11:10;;;;;;;5.15;3.35;;;-3.70;99.90;;;;;;5070722;28;20094;-65
2024/01/09 04:13:37;;;;;;;5.60;3.30;;;-3.80;99.90;;;;;;5072364;28;20086;-65
2024/01/09 04:16:03;;;;;;;9.90;3.78;;;-3.80;99.90;;;;;;5072032;28;20351;-65
2024/01/09 04:18:29;;;;;;;5.20;3.40;;;-3.80;99.90;;;;;;5070487;28;20131;-65
2024/01/09 04:20:54;;;;;;;5.43;3.40;;;-3.80;99.90;;;;;;5072193;28;20044;-65
2024/01/09 04:23:20;;;;;;;5.47;3.50;;;-3.80;99.90;;;;;;5072053;28;20084;-65
2024/01/09 04:25:46;;;;;;;6.57;3.38;;;-3.80;99.90;;;;;;5072296;28;20052;-65
2024/01/09 04:28:11;;;;;;;6.35;3.63;;;-3.80;99.90;;;;;;5070529;28;20045;-66
2024/01/09 04:30:37;;;;;;;5.50;3.42;;;-3.80;99.90;;;;;;5071844;28;20074;-66
2024/01/09 04:33:03;;;;;;;5.88;3.20;;;-3.90;99.90;;;;;;5070897;28;20044;-65
2024/01/09 04:35:28;;;;;;;6.88;3.53;;;-3.90;99.90;;;;;;5070434;28;20048;-65
2024/01/09 04:37:54;;;;;;;6.60;3.75;;;-3.80;99.90;;;;;;5071867;28;20135;-67
2024/01/09 04:40:20;;;;;;;6.60;3.67;;;-3.30;99.90;;;;;;5071569;28;20043;-65
2024/01/09 04:42:45;;;;;;;6.57;3.72;;;-3.90;99.90;;;;;;5071762;28;20474;-65
2024/01/09 04:45:11;;;;;;;6.97;3.80;;;-2.80;99.90;;;;;;5071446;28;20076;-71
2024/01/09 04:47:37;;;;;;;6.57;3.95;;;-3.90;99.90;;;;;;5071674;28;20052;-65
2024/01/09 04:50:03;;;;;;;7.70;4.13;;;-4.00;99.90;;;;;;5071966;28;20129;-66
2024/01/09 04:52:28;;;;;;;9.00;4.05;;;-4.00;99.90;;;;;;5071369;28;20144;-65
2024/01/09 04:54:54;;;;;;;7.45;3.65;;;-3.00;99.90;;;;;;5071767;28;20040;-65
2024/01/09 04:57:19;;;;;;;5.53;3.20;;;-4.00;99.90;;;;;;5071295;28;20055;-65
2024/01/09 04:59:48;;;;;;;6.72;4.03;;;-4.00;99.90;;;;;;5071489;28;20488;-65
2024/01/09 05:02:14;;;;;;;6.78;3.80;;;-4.10;99.90;;;;;;5071197;28;20052;-72
2024/01/09 05:04:40;;;;;;;7.82;4.10;;;-3.50;99.90;;;;;;5071527;28;20044;-65
2024/01/09 05:07:05;;;;;;;6.07;4.10;;;-4.10;99.90;;;;;;5070592;28;20475;-65
2024/01/09 05:09:31;;;;;;;7.72;4.22;;;-4.20;99.90;;;;;;5071047;28;20487;-65
2024/01/09 05:11:56;;;;;;;6.22;3.58;;;-4.20;99.90;;;;;;5071612;28;20087;-65
2024/01/09 05:14:22;;;;;;;6.85;3.80;;;-4.20;99.90;;;;;;5071025;28;20392;-66
2024/01/09 05:16:48;;;;;;;5.40;3.50;;;-4.20;99.90;;;;;;5070075;28;20040;-65
2024/01/09 05:19:13;;;;;;;8.95;4.40;;;-4.20;99.90;;;;;;5071074;28;20044;-67
2024/01/09 05:21:39;;;;;;;5.53;3.50;;;-4.30;99.90;;;;;;5070057;28;20041;-66
2024/01/09 05:24:05;;;;;;;8.90;3.90;;;-4.30;99.90;;;;;;5071425;28;20044;-66
2024/01/09 05:26:30;;;;;;;7.25;4.13;;;-4.30;99.90;;;;;;5070902;28;20476;-66
2024/01/09 05:28:56;;;;;;;6.70;3.53;;;-4.40;99.90;;;;;;5073350;28;20536;-65
2024/01/09 05:31:23;;;;;;;7.28;3.80;;;-4.40;99.90;;;;;;5074855;28;20509;-66
2024/01/09 05:33:49;;;;;;;5.53;3.45;;;-4.30;99.90;;;;;;5075492;28;20080;-66
2024/01/09 05:36:18;;;;;;;6.80;3.70;;;-4.40;99.90;;;;;;5074368;28;20091;-66
2024/01/09 05:38:44;;;;;;;6.25;4.25;;;-4.40;99.90;;;;;;5074965;28;20051;-66
2024/01/09 05:41:19;;;;;;;5.68;3.63;;;-4.40;99.90;;;;;;5057519;28;20045;-66
2024/01/09 05:43:44;;;;;;;7.10;4.13;;;-4.50;99.90;;;;;;5075118;28;20088;-66
2024/01/09 05:46:10;;;;;;;7.57;3.85;;;-4.40;99.90;;;;;;5073651;28;20141;-66
2024/01/09 05:48:36;;;;;;;7.07;3.47;;;-4.50;99.90;;;;;;5073338;28;20040;-66
2024/01/09 05:51:01;;;;;;;6.40;3.95;;;-4.50;99.90;;;;;;5073659;28;20045;-67
2024/01/09 05:53:27;;;;;;;6.70;3.75;;;-4.50;99.90;;;;;;5073713;28;20052;-66
2024/01/09 05:55:53;;;;;;;7.88;3.63;;;-4.50;99.90;;;;;;5073640;28;20120;-66
2024/01/09 05:58:19;;;;;;;6.50;3.92;;;-4.50;99.90;;;;;;5074534;28;20417;-66
2024/01/09 06:00:44;;;;;;;6.18;3.45;;;-4.50;99.90;;;;;;5074124;28;20048;-66
2024/01/09 06:03:10;;;;;;;8.10;4.30;;;-3.70;99.90;;;;;;5074951;28;20114;-66
2024/01/09 06:05:36;;;;;;;6.85;3.53;;;-4.50;99.90;;;;;;5073530;28;20138;-66
2024/01/09 06:08:02;;;;;;;7.50;3.70;;;-4.40;99.90;;;;;;5074727;28;20131;-66
2024/01/09 06:10:28;;;;;;;5.97;3.22;;;-4.50;99.90;;;;;;5074159;28;20495;-66
2024/01/09 06:12:53;;;;;;;6.93;3.60;;;-4.40;99.90;;;;;;5074654;28;20091;-66
2024/01/09 06:15:19;;;;;;;6.32;3.53;;;-4.50;99.90;;;;;;5074828;28;20050;-66
2024/01/09 06:17:45;;;;;;;5.93;3.80;;;-4.50;99.90;;;;;;5074069;28;20105;-66
2024/01/09 06:20:11;;;;;;;5.88;3.75;;;-4.20;99.90;;;;;;5074352;28;20578;-66
2024/01/09 06:22:37;;;;;;;8.60;3.80;;;-4.50;99.90;;;;;;5056293;28;20428;-67
2024/01/09 06:25:03;;;;;;;5.95;3.80;;;-4.50;99.90;;;;;;5073272;28;20075;-65
2024/01/09 06:27:28;;;;;;;8.48;4.50;;;-4.50;99.90;;;;;;5072711;28;20170;-66
2024/01/09 06:29:54;;;;;;;8.93;4.13;;;-4.50;99.90;;;;;;5074009;28;20436;-65
2024/01/09 06:32:20;;;;;;;6.90;3.80;;;-4.50;99.90;;;;;;5073395;28;20056;-65
2024/01/09 06:34:45;;;;;;;6.47;4.00;;;-4.40;99.90;;;;;;5073795;28;20048;-65
2024/01/09 06:37:11;;;;;;;6.75;4.20;;;-4.60;99.90;;;;;;5074187;28;20372;-65
2024/01/09 06:39:37;;;;;;;7.03;4.43;;;-4.60;99.90;;;;;;5073064;28;20096;-66
2024/01/09 06:42:03;;;;;;;6.13;3.80;;;-4.60;99.90;;;;;;5073375;28;20123;-65
2024/01/09 06:44:29;;;;;;;8.30;4.05;;;-4.60;99.90;;;;;;5072717;28;20514;-71
2024/01/09 06:46:54;;;;;;;6.28;4.10;;;-4.60;99.90;;;;;;5072266;28;20044;-65
2024/01/09 06:49:20;;;;;;;6.40;4.25;;;-4.60;99.90;;;;;;5073953;28;20388;-66
2024/01/09 06:51:46;;;;;;;8.88;4.65;;;-4.60;99.90;;;;;;5071952;28;20372;-66
2024/01/09 06:54:12;;;;;;;6.95;4.38;;;-4.70;99.90;;;;;;5055966;28;20045;-66
2024/01/09 06:56:43;;;;;;;8.57;4.30;;;-4.70;99.90;;;;;;5073514;28;20050;-67
2024/01/09 06:59:10;;;;;;;6.85;4.25;;;-4.70;99.90;;;;;;5073654;28;20044;-67
2024/01/09 07:01:35;;;;;;;7.30;4.40;;;-4.70;99.90;;;;;;5073356;28;20056;-69
2024/01/09 07:04:01;;;;;;;7.75;4.65;;;-4.70;99.90;;;;;;5073742;28;20131;-66
2024/01/09 07:06:27;;;;;;;8.18;4.50;;;-4.70;99.90;;;;;;5073664;28;20079;-67
2024/01/09 07:08:53;;;;;;;6.53;3.72;;;-4.70;99.90;;;;;;5072984;28;20127;-66
2024/01/09 07:11:18;;;;;;;7.55;3.92;;;-4.70;99.90;;;;;;5073636;28;20120;-66
2024/01/09 07:13:44;;;;;;;7.15;4.43;;;-4.60;99.90;;;;;;5071768;28;20047;-66
2024/01/09 07:16:10;;;;;;;6.60;4.03;;;-4.60;99.90;;;;;;5073385;28;20508;-66
2024/01/09 07:18:36;;;;;;;8.43;4.63;;;-4.70;99.90;;;;;;5071881;28;20037;-67
2024/01/09 07:21:02;;;;;;;8.02;4.47;;;-4.70;99.90;;;;;;5072912;28;20101;-66
2024/01/09 07:23:27;;;;;;;7.80;4.45;;;-4.70;99.90;;;;;;5073205;28;20055;-66
2024/01/09 07:25:53;;;;;;;9.10;4.68;;;-4.70;99.90;;;;;;5071677;28;20048;-67
2024/01/09 07:28:18;;;;;;;8.00;4.65;;;-4.70;99.90;;;;;;5055718;28;20040;-67
2024/01/09 07:30:45;;;;;;;9.05;4.35;;;-4.60;99.90;;;;;;5072501;28;20040;-65
2024/01/09 07:33:10;;;;;;;6.75;4.00;;;-4.60;99.90;;;;;;5073053;28;20110;-66
2024/01/09 07:35:37;;;;;;;6.38;3.75;;;-4.60;99.90;;;;;;5071862;28;20504;-70
2024/01/09 07:38:04;;;;;;;7.30;3.88;;;-4.60;99.90;;;;;;5071321;28;20133;-64
2024/01/09 07:40:30;;;;;;;6.97;4.38;;;-4.60;99.90;;;;;;5072362;28;20037;-65
2024/01/09 07:42:58;;;;;;;8.85;5.10;;;-4.60;99.90;;;;;;5072203;28;20051;-64
2024/01/09 07:45:28;;;;;;;7.68;5.35;;;-4.60;99.90;;;;;;5072734;28;20048;-65
2024/01/09 07:47:55;;;;;;;7.32;4.63;;;-4.60;99.90;;;;;;5072922;28;20154;-65
2024/01/09 07:50:22;;;;;;;7.60;5.00;;;-4.70;99.90;;;;;;5071898;28;20044;-65
2024/01/09 07:52:47;;;;;;;6.35;4.53;;;-4.20;99.90;;;;;;5072079;28;20052;-65
2024/01/09 07:55:13;;;;;;;7.97;4.60;;;-4.60;99.90;;;;;;5072497;28;20051;-67
2024/01/09 07:57:39;;;;;;;7.65;4.75;;;-4.60;99.90;;;;;;5071674;28;20078;-67
2024/01/09 08:00:05;;;;;;;8.57;4.13;;;-3.90;99.90;;;;;;5071258;28;20058;-64
2024/01/09 08:02:31;;;;;;;8.60;4.70;;;-4.60;99.90;;;;;;5070901;28;20048;-64
2024/01/09 08:04:57;;;;;;;7.80;4.47;;;-4.60;99.90;;;;;;5071140;28;20052;-64
2024/01/09 08:07:23;;;;;;;8.52;4.85;;;-4.70;99.90;;;;;;5054521;28;20381;-64
2024/01/09 08:09:48;;;;;;;9.50;4.93;;;-4.60;99.90;;;;;;5071697;28;20052;-64
2024/01/09 08:12:14;;;;;;;8.30;4.88;;;-4.60;99.90;;;;;;5072082;28;20135;-65
2024/01/09 08:14:40;;;;;;;9.35;5.00;;;-4.70;99.90;;;;;;5071822;28;20434;-65
2024/01/09 08:17:05;;;;;;;7.18;4.05;;;-4.60;99.90;;;;;;5071748;28;20071;-64
2024/01/09 08:19:32;;;;;;;6.68;4.13;;;-4.60;99.90;;;;;;5071145;28;20142;-64
2024/01/09 08:21:58;;;;;;;6.65;4.18;;;-4.60;99.90;;;;;;5069711;28;20040;-64
2024/01/09 08:24:23;;;;;;;7.53;4.07;;;-4.60;99.90;;;;;;5072042;28;20155;-64
2024/01/09 08:26:49;;;;;;;7.18;4.68;;;-4.60;99.90;;;;;;5070539;28;20559;-64
2024/01/09 08:29:16;;;;;;;9.18;5.18;;;-4.50;99.90;;;;;;5072196;28;20059;-65
2024/01/09 08:31:49;;;;;;;8.98;4.47;;;-4.50;99.90;;;;;;5070520;28;20056;-65
2024/01/09 08:34:15;;;;;;;9.00;3.78;;;-4.50;99.90;;;;;;5070275;28;20083;-65
2024/01/09 08:36:43;;;;;;;6.97;4.07;;;-4.40;99.90;;;;;;5071562;28;20372;-65
2024/01/09 08:39:10;;;;;;;7.95;4.53;;;-4.50;99.90;;;;;;5071682;28;20118;-65
2024/01/09 08:41:36;;;;;;;7.32;4.30;;;-4.40;99.90;;;;;;5071725;28;20376;-65
2024/01/09 08:44:02;;;;;;;6.80;4.13;;;-4.40;99.90;;;;;;5070295;28;20051;-65
2024/01/09 08:46:28;;;;;;;6.35;3.80;;;-4.40;99.90;;;;;;5054000;28;20055;-65
2024/01/09 08:48:53;;;;;;;6.95;3.40;;;-4.30;99.90;;;;;;5071339;28;20438;-65
2024/01/09 08:51:19;;;;;;;8.00;4.07;;;-2.90;99.90;;;;;;5071500;28;20128;-65
2024/01/09 08:53:45;;;;;;;7.93;4.75;;;-4.20;99.90;;;;;;5071711;28;20055;-65
2024/01/09 08:56:11;;;;;;;6.65;4.18;;;-4.20;99.90;;;;;;5070147;28;20543;-65
2024/01/09 08:58:36;;;;;;;7.38;4.40;;;-4.20;99.90;;;;;;5071447;28;20075;-66
2024/01/09 09:01:03;;;;;;;6.68;4.38;;;-4.20;99.90;;;;;;5071031;28;20397;-65
2024/01/09 09:03:29;;;;;;;8.45;4.28;;;-4.10;99.90;;;;;;5071387;28;20395;-65
2024/01/09 09:05:56;;;;;;;8.55;4.85;;;-4.10;99.90;;;;;;5069769;28;20056;-67
2024/01/09 09:08:22;;;;;;;7.95;4.65;;;-4.10;99.90;;;;;;5053931;28;20052;-67
2024/01/09 09:10:48;;;;;;;5.80;4.03;;;-4.10;99.90;;;;;;5071234;28;20044;-66
2024/01/09 09:13:13;;;;;;;6.50;4.72;;;-3.20;99.90;;;;;;5070315;28;20127;-66
2024/01/09 09:15:39;;;;;;;8.02;4.70;;;-4.00;99.90;;;;;;5067449;28;20128;-66
2024/01/09 09:18:05;;;;;;;6.60;4.43;;;-4.00;99.90;;;;;;5070220;28;20251;-66
2024/01/09 09:20:30;;;;;;;6.13;4.55;;;-4.00;99.90;;;;;;5068574;28;20032;-67
2024/01/09 09:22:57;;;;;;;6.75;4.05;;;-3.90;99.90;;;;;;5069060;28;20048;-66
2024/01/09 09:25:22;;;;;;;6.47;4.53;;;-3.90;99.90;;;;;;5070735;28;20067;-66
2024/01/09 09:27:48;;;;;;;6.30;4.00;;;-3.90;99.90;;;;;;5068829;28;20052;-66
2024/01/09 09:30:14;;;;;;;6.47;4.45;;;-3.80;99.90;;;;;;5070777;28;20075;-66
2024/01/09 09:32:39;;;;;;;7.55;4.57;;;-3.80;99.90;;;;;;5071108;28;20040;-66
2024/01/09 09:35:05;;;;;;;5.95;3.90;;;-3.80;99.90;;;;;;5070587;28;20040;-66
2024/01/09 09:37:31;;;;;;;6.10;3.83;;;-3.70;99.90;;;;;;5069293;28;20047;-65
2024/01/09 09:39:57;;;;;;;6.95;4.22;;;-3.60;99.90;;;;;;5068448;28;20417;-65
2024/01/09 09:42:25;;;;;;;5.07;3.40;;;-3.60;99.90;;;;;;5070650;28;20054;-64
2024/01/09 09:44:52;;;;;;;5.95;3.78;;;-3.50;99.90;;;;;;5071162;28;20087;-66
2024/01/09 09:47:21;;;;;;;6.25;3.97;;;-3.50;99.90;;;;;;5070260;28;20474;-64
2024/01/09 09:49:48;;;;;;;6.63;3.78;;;-3.20;99.90;;;;;;5070873;28;20048;-65
2024/01/09 09:52:14;;;;;;;5.72;3.70;;;-3.30;99.90;;;;;;5052869;28;20055;-65
2024/01/09 09:54:41;;;;;;;7.13;3.30;;;-3.30;99.90;;;;;;5070478;28;20045;-65
2024/01/09 09:57:08;;;;;;;5.72;3.28;;;-3.20;99.90;;;;;;5069848;28;20573;-64
2024/01/09 09:59:33;;;;;;;5.00;3.35;;;-3.20;99.90;;;;;;5069887;28;20509;-64
2024/01/09 10:02:05;;;;;;;4.93;3.20;;;-3.10;99.90;;;;;;5068979;28;20052;-64
2024/01/09 10:04:48;;;;;;;7.30;3.40;;;-3.00;99.90;;;;;;5071167;28;20538;-67
2024/01/09 10:07:20;;;;;;;5.05;3.15;;;-2.90;99.90;;;;;;5069759;28;20475;-64
2024/01/09 10:09:51;;;;;;;4.45;3.15;;;-2.90;99.90;;;;;;5070298;28;20128;-66
2024/01/09 10:12:23;;;;;;;5.50;2.90;;;-1.90;99.90;;;;;;5070733;28;20055;-69
2024/01/09 10:15:07;;;;;;;5.30;3.65;;;-2.80;99.90;;;;;;5073863;28;20054;-64
2024/01/09 10:17:34;;;;;;;5.88;3.45;;;-2.70;99.90;;;;;;5074567;28;20408;-64
2024/01/09 10:20:00;;;;;;;5.50;3.20;;;-2.70;99.90;;;;;;5073135;28;20479;-71
2024/01/09 10:22:29;;;;;;;6.18;3.88;;;-2.60;99.90;;;;;;5074124;28;20483;-63
2024/01/09 10:24:56;;;;;;;5.15;3.35;;;-1.60;99.90;;;;;;5073967;28;20403;-66
2024/01/09 10:27:22;;;;;;;5.82;3.05;;;-2.20;99.90;;;;;;5073500;28;20044;-63
2024/01/09 10:29:47;;;;;;;4.43;2.75;;;-2.50;99.90;;;;;;5072816;28;20110;-64
2024/01/09 10:32:14;;;;;;;4.95;3.00;;;-2.00;99.90;;;;;;5073818;28;20392;-64
2024/01/09 10:34:40;;;;;;;5.40;3.03;;;-2.40;99.90;;;;;;5074277;28;20389;-65
2024/01/09 10:37:09;;;;;;;5.18;3.03;;;-2.40;99.90;;;;;;5072421;28;20072;-63
2024/01/09 10:39:35;;;;;;;4.95;2.80;;;-2.40;99.90;;;;;;5073775;28;20502;-63
2024/01/09 10:42:05;;;;;;;4.63;2.85;;;-2.30;99.90;;;;;;5073677;28;20040;-63
2024/01/09 10:44:31;;;;;;;5.72;3.28;;;-2.30;99.90;;;;;;5073841;28;20435;-65
2024/01/09 10:46:59;;;;;;;5.03;2.88;;;-2.10;99.90;;;;;;5073858;28;20048;-63
2024/01/09 10:49:25;;;;;;;4.18;2.65;;;-1.30;99.90;;;;;;5073322;28;20051;-66
2024/01/09 10:51:53;;;;;;;5.68;3.15;;;-2.10;99.90;;;;;;5073172;28;20040;-64
2024/01/09 10:54:20;;;;;;;4.90;3.03;;;-2.10;99.90;;;;;;5071931;28;20129;-63
2024/01/09 10:56:49;;;;;;;6.10;2.97;;;-2.00;99.90;;;;;;5073567;28;20049;-65
2024/01/09 10:59:16;;;;;;;4.32;3.00;;;-2.00;99.90;;;;;;5073097;28;20052;-63
2024/01/09 11:01:42;;;;;;;5.20;2.83;;;-1.90;99.90;;;;;;5073203;28;20064;-63
2024/01/09 11:04:08;;;;;;;4.93;3.05;;;-1.90;99.90;;;;;;5071285;28;20099;-67
2024/01/09 11:06:36;;;;;;;5.20;3.15;;;-1.90;99.90;;;;;;5073096;28;20048;-63
2024/01/09 11:09:08;;;;;;;4.70;3.03;;;-1.70;99.90;;;;;;5071675;28;20142;-63
2024/01/09 11:11:36;;;;;;;5.20;3.17;;;-1.90;99.90;;;;;;5072882;28;20036;-63
2024/01/09 11:14:08;;;;;;;5.40;3.10;;;-1.60;99.90;;;;;;5072172;28;20048;-63
2024/01/09 11:16:40;;;;;;;4.80;2.95;;;-1.80;99.90;;;;;;5073005;28;20048;-63
2024/01/09 11:19:07;;;;;;;6.90;3.60;;;-0.80;99.90;;;;;;5071152;28;20087;-69
2024/01/09 11:21:33;;;;;;;5.15;3.17;;;-1.70;99.90;;;;;;5071816;28;20075;-62
2024/01/09 11:24:02;;;;;;;5.57;3.47;;;-1.00;99.90;;;;;;5071621;28;20052;-63
2024/01/09 11:26:34;;;;;;;4.47;3.20;;;-1.80;99.90;;;;;;5071337;28;20048;-63
2024/01/09 11:29:00;;;;;;;5.22;3.00;;;-1.70;99.90;;;;;;5071910;28;20052;-64
2024/01/09 11:31:29;;;;;;;4.85;3.20;;;-1.70;99.90;;;;;;5071306;28;20048;-63
2024/01/09 11:33:56;;;;;;;6.05;3.03;;;-1.70;99.90;;;;;;5072627;28;20504;-63
2024/01/09 11:36:28;;;;;;;4.50;3.05;;;-1.60;99.90;;;;;;5072985;28;20048;-63
2024/01/09 11:38:54;;;;;;;5.80;3.03;;;-1.60;99.90;;;;;;5073267;28;20055;-63
2024/01/09 11:41:24;;;;;;;4.43;2.80;;;-1.40;99.90;;;;;;5072603;28;20040;-63
2024/01/09 11:44:06;;;;;;;5.00;3.13;;;-1.50;99.90;;;;;;5071289;28;20045;-63
2024/01/09 11:46:37;;;;;;;5.70;3.22;;;-1.50;99.90;;;;;;5072698;28;20044;-63
2024/01/09 11:49:05;;;;;;;7.05;3.10;;;-1.50;99.90;;;;;;5072959;28;20052;-63
2024/01/09 11:51:33;;;;;;;5.13;3.03;;;-1.50;99.90;;;;;;5072105;28;20604;-63
2024/01/09 11:54:00;;;;;;;4.90;3.40;;;-0.70;99.90;;;;;;5072908;28;20056;-64
2024/01/09 11:56:26;;;;;;;6.97;4.00;;;-0.70;99.90;;;;;;5072502;28;20141;-63
2024/01/09 11:58:53;;;;;;;7.45;4.10;;;-0.40;99.90;;;;;;5068856;28;20517;-64
2024/01/09 12:01:20;;;;;;;5.70;3.47;;;-1.40;99.90;;;;;;5069094;28;20052;-63
2024/01/09 12:03:53;;;;;;;6.82;3.90;;;-1.40;99.90;;;;;;5071080;28;20054;-64
2024/01/09 12:06:23;;;;;;;7.78;4.70;;;-0.40;99.90;;;;;;5070768;28;20044;-64
2024/01/09 12:08:51;;;;;;;8.55;5.07;;;-1.30;99.90;;;;;;5071644;28;20457;-67
2024/01/09 12:11:17;;;;;;;6.55;4.80;;;-1.30;99.90;;;;;;5070278;28;20472;-64
2024/01/09 12:13:44;;;;;;;7.20;5.25;;;-1.00;99.90;;;;;;5069998;28;20049;-67
2024/01/09 12:16:20;;;;;;;9.60;5.88;;;-1.20;99.90;;;;;;5072290;28;20048;-64
2024/01/09 12:18:56;;;;;;;11.00;5.03;;;-1.20;99.90;;;;;;5068267;28;20086;-63
2024/01/09 12:21:34;;;;;;;10.75;5.28;;;-1.20;99.90;;;;;;5071034;28;20113;-63
2024/01/09 12:24:03;;;;;;;7.53;5.10;;;-1.20;99.90;;;;;;5068588;28;20051;-63
2024/01/09 12:26:30;;;;;;;9.30;5.07;;;-1.20;99.90;;;;;;5071363;28;20044;-63
2024/01/09 12:28:57;;;;;;;8.10;5.22;;;-1.10;99.90;;;;;;5071512;28;20048;-64
2024/01/09 12:31:23;;;;;;;6.95;5.03;;;-1.10;99.90;;;;;;5070846;28;20055;-64
2024/01/09 12:33:50;;;;;;;6.93;4.90;;;-1.10;99.90;;;;;;5071072;28;20102;-64
2024/01/09 12:36:16;;;;;;;7.18;4.75;;;-1.00;99.90;;;;;;5069439;28;20041;-71
2024/01/09 12:38:42;;;;;;;7.60;4.68;;;-1.10;99.90;;;;;;5069806;28;20052;-64
2024/01/09 12:41:08;;;;;;;9.32;5.20;;;-1.10;99.90;;;;;;5069145;28;20114;-68